TAR754 LIRF-DTTA
Flight info
| Callsign | TAR754 |
|---|---|
| Flight time | 0h 44m |
| Altitude | 33000 |
| Route | ESINO DCT ROXAN DCT QUENN DCT NOLSI UP161 TUC |
| Aircraft | A320/M-SDE3FGHIRWY/LB1 |
Departure
| Time | 2026-05-03 21:33 |
|---|---|
| Airport | Rome–Fiumicino Leonardo da Vinci International Airport (LIRF) |
Arrival
| Time | 2026-05-03 22:17 |
|---|---|
| Airport | Tunis Carthage International Airport (DTTA) |
| Time | Latitude | Longitude | Altitude | Speed | Heading |
|---|---|---|---|---|---|
| 2026-05-03 20:58 | 41.79589 | 12.24063 | 14 ft | 0 kts | 69° |
| 2026-05-03 21:19 | 41.79580 | 12.24035 | 16 ft | 4 kts | 68° |
| 2026-05-03 21:20 | 41.79570 | 12.24001 | 14 ft | 4 kts | 64° |
| 2026-05-03 21:20 | 41.79557 | 12.23970 | 16 ft | 4 kts | 54° |
| 2026-05-03 21:20 | 41.79539 | 12.23947 | 16 ft | 4 kts | 10° |
| 2026-05-03 21:20 | 41.79531 | 12.23946 | 15 ft | 3 kts | 340° |
| 2026-05-03 21:21 | 41.79556 | 12.23933 | 16 ft | 4 kts | 340° |
| 2026-05-03 21:21 | 41.79579 | 12.23922 | 14 ft | 1 kts | 340° |
| 2026-05-03 21:24 | 41.79580 | 12.23921 | 14 ft | 1 kts | 340° |
| 2026-05-03 21:24 | 41.79593 | 12.23915 | 15 ft | 5 kts | 340° |
| 2026-05-03 21:24 | 41.79673 | 12.23880 | 16 ft | 15 kts | 341° |
| 2026-05-03 21:24 | 41.79657 | 12.23775 | 14 ft | 13 kts | 197° |
| 2026-05-03 21:25 | 41.79568 | 12.23796 | 15 ft | 14 kts | 163° |
| 2026-05-03 21:25 | 41.79463 | 12.23840 | 15 ft | 17 kts | 162° |
| 2026-05-03 21:25 | 41.79348 | 12.23903 | 15 ft | 18 kts | 129° |
| 2026-05-03 21:25 | 41.79394 | 12.24010 | 14 ft | 15 kts | 351° |
| 2026-05-03 21:26 | 41.79499 | 12.23961 | 16 ft | 17 kts | 340° |
| 2026-05-03 21:26 | 41.79624 | 12.23900 | 14 ft | 20 kts | 340° |
| 2026-05-03 21:26 | 41.79725 | 12.23968 | 14 ft | 19 kts | 72° |
| 2026-05-03 21:26 | 41.79770 | 12.24135 | 14 ft | 19 kts | 68° |
| 2026-05-03 21:27 | 41.79830 | 12.24293 | 14 ft | 17 kts | 26° |
| 2026-05-03 21:27 | 41.79931 | 12.24246 | 14 ft | 16 kts | 339° |
| 2026-05-03 21:27 | 41.80033 | 12.24254 | 15 ft | 16 kts | 49° |
| 2026-05-03 21:27 | 41.80072 | 12.24382 | 15 ft | 15 kts | 70° |
| 2026-05-03 21:28 | 41.80114 | 12.24534 | 13 ft | 18 kts | 69° |
| 2026-05-03 21:28 | 41.80160 | 12.24701 | 15 ft | 20 kts | 70° |
| 2026-05-03 21:28 | 41.80206 | 12.24884 | 15 ft | 21 kts | 83° |
| 2026-05-03 21:28 | 41.80212 | 12.25093 | 14 ft | 23 kts | 77° |
| 2026-05-03 21:29 | 41.80270 | 12.25305 | 14 ft | 25 kts | 69° |
| 2026-05-03 21:29 | 41.80334 | 12.25529 | 17 ft | 27 kts | 69° |
| 2026-05-03 21:29 | 41.80399 | 12.25770 | 15 ft | 29 kts | 70° |
| 2026-05-03 21:29 | 41.80470 | 12.26026 | 15 ft | 30 kts | 69° |
| 2026-05-03 21:30 | 41.80544 | 12.26291 | 16 ft | 31 kts | 70° |
| 2026-05-03 21:30 | 41.80614 | 12.26547 | 16 ft | 29 kts | 70° |
| 2026-05-03 21:30 | 41.80679 | 12.26785 | 14 ft | 28 kts | 70° |
| 2026-05-03 21:30 | 41.80733 | 12.26981 | 16 ft | 18 kts | 69° |
| 2026-05-03 21:31 | 41.80776 | 12.27043 | 13 ft | 8 kts | 15° |
| 2026-05-03 21:31 | 41.80829 | 12.27031 | 15 ft | 7 kts | 341° |
| 2026-05-03 21:31 | 41.80887 | 12.27004 | 13 ft | 10 kts | 340° |
| 2026-05-03 21:31 | 41.80956 | 12.26958 | 13 ft | 12 kts | 308° |
| 2026-05-03 21:32 | 41.80934 | 12.26845 | 13 ft | 15 kts | 249° |
| 2026-05-03 21:32 | 41.80856 | 12.26541 | 17 ft | 68 kts | 250° |
| 2026-05-03 21:32 | 41.80609 | 12.25673 | 17 ft | 129 kts | 249° |
| 2026-05-03 21:32 | 41.80252 | 12.24327 | 19 ft | 176 kts | 251° |
| 2026-05-03 21:33 | 41.79832 | 12.22743 | 572 ft | 181 kts | 250° |
| 2026-05-03 21:33 | 41.79374 | 12.21165 | 1310 ft | 183 kts | 252° |
| 2026-05-03 21:33 | 41.79215 | 12.19443 | 1922 ft | 194 kts | 266° |
| 2026-05-03 21:33 | 41.79055 | 12.17552 | 2342 ft | 214 kts | 261° |
| 2026-05-03 21:34 | 41.78783 | 12.15458 | 2692 ft | 242 kts | 258° |
| 2026-05-03 21:34 | 41.78466 | 12.13117 | 3133 ft | 268 kts | 260° |
| 2026-05-03 21:34 | 41.78173 | 12.10536 | 3653 ft | 290 kts | 262° |
| 2026-05-03 21:34 | 41.77641 | 12.07967 | 4708 ft | 282 kts | 237° |
| 2026-05-03 21:35 | 41.76283 | 12.06192 | 5899 ft | 274 kts | 206° |
| 2026-05-03 21:35 | 41.74483 | 12.05497 | 6920 ft | 271 kts | 191° |
| 2026-05-03 21:35 | 41.72635 | 12.04892 | 7772 ft | 274 kts | 195° |
| 2026-05-03 21:35 | 41.70811 | 12.04149 | 8718 ft | 273 kts | 198° |
| 2026-05-03 21:36 | 41.69044 | 12.03318 | 9826 ft | 267 kts | 200° |
| 2026-05-03 21:36 | 41.67302 | 12.02427 | 10625 ft | 272 kts | 201° |
| 2026-05-03 21:36 | 41.65462 | 12.01460 | 10925 ft | 296 kts | 201° |
| 2026-05-03 21:36 | 41.63468 | 12.00423 | 11209 ft | 318 kts | 201° |
| 2026-05-03 21:37 | 41.61355 | 11.99345 | 11737 ft | 330 kts | 200° |
| 2026-05-03 21:37 | 41.59188 | 11.98253 | 12453 ft | 335 kts | 200° |
| 2026-05-03 21:37 | 41.56994 | 11.97154 | 13192 ft | 340 kts | 200° |
| 2026-05-03 21:37 | 41.54753 | 11.96059 | 13947 ft | 344 kts | 200° |
| 2026-05-03 21:38 | 41.52485 | 11.95016 | 14608 ft | 347 kts | 199° |
| 2026-05-03 21:38 | 41.50178 | 11.93990 | 15296 ft | 350 kts | 199° |
| 2026-05-03 21:38 | 41.47848 | 11.92965 | 15925 ft | 354 kts | 199° |
| 2026-05-03 21:38 | 41.45502 | 11.91932 | 16563 ft | 358 kts | 199° |
| 2026-05-03 21:39 | 41.43127 | 11.90880 | 17212 ft | 361 kts | 199° |
| 2026-05-03 21:39 | 41.40726 | 11.89811 | 17858 ft | 365 kts | 200° |
| 2026-05-03 21:39 | 41.38312 | 11.88734 | 18484 ft | 368 kts | 200° |
| 2026-05-03 21:39 | 41.35875 | 11.87646 | 19005 ft | 372 kts | 200° |
| 2026-05-03 21:40 | 41.33398 | 11.86544 | 19539 ft | 376 kts | 200° |
| 2026-05-03 21:40 | 41.30909 | 11.85435 | 20087 ft | 379 kts | 200° |
| 2026-05-03 21:40 | 41.28400 | 11.84319 | 20633 ft | 382 kts | 200° |
| 2026-05-03 21:40 | 41.25876 | 11.83195 | 21173 ft | 385 kts | 200° |
| 2026-05-03 21:41 | 41.23316 | 11.82055 | 21703 ft | 388 kts | 200° |
| 2026-05-03 21:41 | 41.20758 | 11.80918 | 22222 ft | 391 kts | 200° |
| 2026-05-03 21:41 | 41.18172 | 11.79768 | 22742 ft | 393 kts | 200° |
| 2026-05-03 21:41 | 41.15568 | 11.78607 | 23250 ft | 396 kts | 201° |
| 2026-05-03 21:42 | 41.12942 | 11.77438 | 23760 ft | 399 kts | 201° |
| 2026-05-03 21:42 | 41.10301 | 11.76269 | 24167 ft | 402 kts | 200° |
| 2026-05-03 21:42 | 41.07635 | 11.75094 | 24577 ft | 404 kts | 201° |
| 2026-05-03 21:42 | 41.04965 | 11.73918 | 24981 ft | 407 kts | 201° |
| 2026-05-03 21:43 | 41.02271 | 11.72730 | 25388 ft | 409 kts | 201° |
| 2026-05-03 21:43 | 40.99569 | 11.71537 | 25777 ft | 411 kts | 201° |
| 2026-05-03 21:43 | 40.96847 | 11.70339 | 26171 ft | 414 kts | 201° |
| 2026-05-03 21:43 | 40.94103 | 11.69133 | 26530 ft | 416 kts | 201° |
| 2026-05-03 21:44 | 40.91344 | 11.67920 | 26911 ft | 419 kts | 201° |
| 2026-05-03 21:44 | 40.88579 | 11.66707 | 27319 ft | 420 kts | 201° |
| 2026-05-03 21:44 | 40.85793 | 11.65487 | 27762 ft | 421 kts | 201° |
| 2026-05-03 21:44 | 40.83005 | 11.64266 | 28148 ft | 423 kts | 201° |
| 2026-05-03 21:45 | 40.80215 | 11.63040 | 28530 ft | 425 kts | 201° |
| 2026-05-03 21:45 | 40.77401 | 11.61803 | 28899 ft | 427 kts | 201° |
| 2026-05-03 21:45 | 40.74570 | 11.60560 | 29254 ft | 429 kts | 201° |
| 2026-05-03 21:45 | 40.71734 | 11.59318 | 29621 ft | 431 kts | 201° |
| 2026-05-03 21:46 | 40.68887 | 11.58075 | 29981 ft | 433 kts | 201° |
| 2026-05-03 21:46 | 40.66012 | 11.56822 | 30312 ft | 435 kts | 201° |
| 2026-05-03 21:46 | 40.63136 | 11.55567 | 30591 ft | 437 kts | 201° |
| 2026-05-03 21:46 | 40.60233 | 11.54299 | 30867 ft | 439 kts | 201° |
| 2026-05-03 21:47 | 40.57320 | 11.53030 | 31138 ft | 441 kts | 201° |
| 2026-05-03 21:47 | 40.54406 | 11.51762 | 31394 ft | 443 kts | 201° |
| 2026-05-03 21:47 | 40.51475 | 11.50488 | 31630 ft | 446 kts | 201° |
| 2026-05-03 21:47 | 40.48524 | 11.49207 | 31977 ft | 445 kts | 201° |
| 2026-05-03 21:48 | 40.45591 | 11.47935 | 32349 ft | 444 kts | 201° |
| 2026-05-03 21:48 | 40.42655 | 11.46664 | 32719 ft | 444 kts | 201° |
| 2026-05-03 21:48 | 40.39724 | 11.45396 | 33065 ft | 444 kts | 201° |
| 2026-05-03 21:48 | 40.36782 | 11.44125 | 33169 ft | 447 kts | 201° |
| 2026-05-03 21:49 | 40.23098 | 11.38216 | 33213 ft | 455 kts | 201° |
| 2026-05-03 21:49 | 39.99081 | 11.27925 | 33221 ft | 451 kts | 201° |
| 2026-05-03 21:50 | 39.75336 | 11.17798 | 33213 ft | 449 kts | 201° |
| 2026-05-03 21:50 | 39.51575 | 11.07759 | 33196 ft | 449 kts | 201° |
| 2026-05-03 21:51 | 39.27837 | 10.97807 | 33177 ft | 448 kts | 200° |
| 2026-05-03 21:51 | 39.04080 | 10.87901 | 33163 ft | 448 kts | 200° |
| 2026-05-03 21:52 | 38.83023 | 10.79189 | 33161 ft | 447 kts | 200° |
| 2026-05-03 21:52 | 38.77299 | 10.76832 | 32994 ft | 419 kts | 200° |
| 2026-05-03 21:53 | 38.75482 | 10.76085 | 32824 ft | 412 kts | 200° |
| 2026-05-03 21:53 | 38.72774 | 10.74974 | 32556 ft | 404 kts | 200° |
| 2026-05-03 21:53 | 38.70107 | 10.73880 | 32307 ft | 400 kts | 200° |
| 2026-05-03 21:53 | 38.67436 | 10.72915 | 32054 ft | 399 kts | 197° |
| 2026-05-03 21:54 | 38.63864 | 10.71844 | 31718 ft | 397 kts | 195° |
| 2026-05-03 21:54 | 38.62047 | 10.71334 | 31536 ft | 396 kts | 195° |
| 2026-05-03 21:54 | 38.59366 | 10.70602 | 31271 ft | 392 kts | 195° |
| 2026-05-03 21:54 | 38.56703 | 10.69882 | 30834 ft | 389 kts | 195° |
| 2026-05-03 21:55 | 38.54074 | 10.69166 | 30382 ft | 386 kts | 195° |
| 2026-05-03 21:55 | 38.51455 | 10.68440 | 29900 ft | 382 kts | 195° |
| 2026-05-03 21:55 | 38.48879 | 10.67716 | 29463 ft | 378 kts | 196° |
| 2026-05-03 21:55 | 38.46323 | 10.66994 | 29035 ft | 373 kts | 196° |
| 2026-05-03 21:56 | 38.43810 | 10.66287 | 28640 ft | 368 kts | 196° |
| 2026-05-03 21:56 | 38.41315 | 10.65589 | 28233 ft | 364 kts | 196° |
| 2026-05-03 21:56 | 38.38858 | 10.64904 | 27829 ft | 360 kts | 196° |
| 2026-05-03 21:56 | 38.36416 | 10.64222 | 27427 ft | 357 kts | 196° |
| 2026-05-03 21:57 | 38.34007 | 10.63547 | 27018 ft | 353 kts | 196° |
| 2026-05-03 21:57 | 38.31621 | 10.62876 | 26620 ft | 351 kts | 196° |
| 2026-05-03 21:57 | 38.29240 | 10.62206 | 26195 ft | 349 kts | 196° |
| 2026-05-03 21:57 | 38.26883 | 10.61544 | 25779 ft | 347 kts | 196° |
| 2026-05-03 21:58 | 38.24526 | 10.60884 | 25356 ft | 345 kts | 196° |
| 2026-05-03 21:58 | 38.22188 | 10.60232 | 24935 ft | 344 kts | 196° |
| 2026-05-03 21:58 | 38.19843 | 10.59583 | 24492 ft | 344 kts | 196° |
| 2026-05-03 21:58 | 38.17516 | 10.58941 | 24051 ft | 343 kts | 197° |
| 2026-05-03 21:59 | 38.15180 | 10.58295 | 23582 ft | 343 kts | 197° |
| 2026-05-03 21:59 | 38.12856 | 10.57653 | 23114 ft | 341 kts | 197° |
| 2026-05-03 21:59 | 38.10550 | 10.57015 | 22675 ft | 339 kts | 197° |
| 2026-05-03 21:59 | 38.08253 | 10.56378 | 22247 ft | 337 kts | 197° |
| 2026-05-03 22:00 | 38.05972 | 10.55743 | 21833 ft | 335 kts | 197° |
| 2026-05-03 22:00 | 38.03701 | 10.55111 | 21416 ft | 333 kts | 197° |
| 2026-05-03 22:00 | 38.01441 | 10.54482 | 21004 ft | 332 kts | 197° |
| 2026-05-03 22:00 | 37.99189 | 10.53856 | 20587 ft | 331 kts | 198° |
| 2026-05-03 22:01 | 37.96943 | 10.53232 | 20178 ft | 330 kts | 198° |
| 2026-05-03 22:01 | 37.94701 | 10.52611 | 19770 ft | 330 kts | 198° |
| 2026-05-03 22:01 | 37.92464 | 10.51993 | 19371 ft | 330 kts | 198° |
| 2026-05-03 22:01 | 37.90215 | 10.51372 | 18955 ft | 330 kts | 198° |
| 2026-05-03 22:02 | 37.87978 | 10.50755 | 18550 ft | 330 kts | 198° |
| 2026-05-03 22:02 | 37.85730 | 10.50135 | 18109 ft | 330 kts | 197° |
| 2026-05-03 22:02 | 37.83484 | 10.49515 | 17700 ft | 329 kts | 197° |
| 2026-05-03 22:02 | 37.81261 | 10.48903 | 17302 ft | 328 kts | 197° |
| 2026-05-03 22:03 | 37.79059 | 10.48299 | 16910 ft | 327 kts | 197° |
| 2026-05-03 22:03 | 37.76816 | 10.47682 | 16516 ft | 326 kts | 196° |
| 2026-05-03 22:03 | 37.74604 | 10.47072 | 16130 ft | 324 kts | 197° |
| 2026-05-03 22:03 | 37.72431 | 10.46473 | 15734 ft | 324 kts | 195° |
| 2026-05-03 22:04 | 37.70234 | 10.45870 | 15370 ft | 323 kts | 197° |
| 2026-05-03 22:04 | 37.68038 | 10.45268 | 14980 ft | 322 kts | 195° |
| 2026-05-03 22:04 | 37.65861 | 10.44671 | 14611 ft | 321 kts | 197° |
| 2026-05-03 22:04 | 37.63679 | 10.44073 | 14227 ft | 320 kts | 195° |
| 2026-05-03 22:05 | 37.61509 | 10.43479 | 13836 ft | 319 kts | 195° |
| 2026-05-03 22:05 | 37.59323 | 10.42881 | 13429 ft | 317 kts | 194° |
| 2026-05-03 22:05 | 37.57173 | 10.42292 | 13034 ft | 315 kts | 194° |
| 2026-05-03 22:05 | 37.55067 | 10.41716 | 12655 ft | 313 kts | 193° |
| 2026-05-03 22:06 | 37.52944 | 10.41137 | 12261 ft | 311 kts | 194° |
| 2026-05-03 22:06 | 37.50834 | 10.40561 | 11884 ft | 309 kts | 196° |
| 2026-05-03 22:06 | 37.48734 | 10.39987 | 11498 ft | 307 kts | 194° |
| 2026-05-03 22:06 | 37.46653 | 10.39419 | 11106 ft | 306 kts | 197° |
| 2026-05-03 22:07 | 37.44570 | 10.38850 | 10706 ft | 305 kts | 194° |
| 2026-05-03 22:07 | 37.42495 | 10.38285 | 10312 ft | 304 kts | 194° |
| 2026-05-03 22:07 | 37.40424 | 10.37721 | 9976 ft | 301 kts | 195° |
| 2026-05-03 22:07 | 37.38415 | 10.37177 | 9784 ft | 292 kts | 196° |
| 2026-05-03 22:08 | 37.36434 | 10.36640 | 9399 ft | 291 kts | 196° |
| 2026-05-03 22:08 | 37.34466 | 10.36104 | 8995 ft | 289 kts | 194° |
| 2026-05-03 22:08 | 37.32501 | 10.35569 | 8608 ft | 287 kts | 195° |
| 2026-05-03 22:08 | 37.30552 | 10.35038 | 8191 ft | 287 kts | 194° |
| 2026-05-03 22:09 | 37.28605 | 10.34509 | 7799 ft | 285 kts | 195° |
| 2026-05-03 22:09 | 37.26682 | 10.33983 | 7510 ft | 279 kts | 195° |
| 2026-05-03 22:09 | 37.24801 | 10.33471 | 7227 ft | 274 kts | 195° |
| 2026-05-03 22:10 | 37.21148 | 10.32481 | 6651 ft | 266 kts | 194° |
| 2026-05-03 22:10 | 37.19351 | 10.31994 | 6340 ft | 261 kts | 193° |
| 2026-05-03 22:10 | 37.17612 | 10.31529 | 6128 ft | 253 kts | 192° |
| 2026-05-03 22:10 | 37.15881 | 10.31103 | 5753 ft | 253 kts | 193° |
| 2026-05-03 22:11 | 37.14170 | 10.30649 | 5411 ft | 250 kts | 193° |
| 2026-05-03 22:11 | 37.12471 | 10.30182 | 5086 ft | 248 kts | 193° |
| 2026-05-03 22:11 | 37.10815 | 10.29727 | 4760 ft | 238 kts | 193° |
| 2026-05-03 22:11 | 37.09237 | 10.29294 | 4450 ft | 226 kts | 193° |
| 2026-05-03 22:12 | 37.07737 | 10.28883 | 4158 ft | 217 kts | 193° |
| 2026-05-03 22:12 | 37.06309 | 10.28492 | 3884 ft | 208 kts | 192° |
| 2026-05-03 22:12 | 37.04902 | 10.28106 | 3612 ft | 200 kts | 192° |
| 2026-05-03 22:12 | 37.03583 | 10.27745 | 3378 ft | 188 kts | 192° |
| 2026-05-03 22:13 | 37.02336 | 10.27404 | 3124 ft | 178 kts | 192° |
| 2026-05-03 22:13 | 37.01173 | 10.27085 | 2897 ft | 162 kts | 190° |
| 2026-05-03 22:13 | 37.00120 | 10.26797 | 2697 ft | 147 kts | 192° |
| 2026-05-03 22:13 | 36.99159 | 10.26535 | 2498 ft | 138 kts | 190° |
| 2026-05-03 22:14 | 36.98232 | 10.26281 | 2322 ft | 135 kts | 190° |
| 2026-05-03 22:14 | 36.97323 | 10.26033 | 2143 ft | 133 kts | 191° |
| 2026-05-03 22:14 | 36.96419 | 10.25786 | 1974 ft | 133 kts | 189° |
| 2026-05-03 22:14 | 36.95531 | 10.25544 | 1803 ft | 133 kts | 191° |
| 2026-05-03 22:15 | 36.94621 | 10.25295 | 1617 ft | 132 kts | 189° |
| 2026-05-03 22:15 | 36.93725 | 10.25051 | 1437 ft | 132 kts | 188° |
| 2026-05-03 22:15 | 36.92842 | 10.24810 | 1266 ft | 131 kts | 188° |
| 2026-05-03 22:15 | 36.91945 | 10.24565 | 1086 ft | 130 kts | 189° |
| 2026-05-03 22:16 | 36.91070 | 10.24327 | 916 ft | 132 kts | 187° |
| 2026-05-03 22:16 | 36.90180 | 10.24087 | 720 ft | 133 kts | 186° |
| 2026-05-03 22:16 | 36.89277 | 10.23839 | 534 ft | 134 kts | 187° |
| 2026-05-03 22:16 | 36.88370 | 10.23589 | 355 ft | 133 kts | 188° |
| 2026-05-03 22:17 | 36.87458 | 10.23339 | 203 ft | 135 kts | 186° |
| 2026-05-03 22:17 | 36.86546 | 10.23083 | 41 ft | 134 kts | 187° |
| 2026-05-03 22:17 | 36.85817 | 10.22875 | 31 ft | 0 kts | 187° |
| 2026-05-03 22:17 | 36.85816 | 10.22875 | 30 ft | 5 kts | 187° |
| 2026-05-03 22:18 | 36.85345 | 10.22765 | 101 ft | 117 kts | 189° |
| 2026-05-03 22:18 | 36.84564 | 10.22487 | 1057 ft | 111 kts | 190° |
| 2026-05-03 22:18 | 36.83854 | 10.22314 | 2240 ft | 102 kts | 186° |
| 2026-05-03 22:18 | 36.83039 | 10.22177 | 2720 ft | 132 kts | 188° |
| 2026-05-03 22:19 | 36.82014 | 10.22014 | 2973 ft | 170 kts | 187° |
| 2026-05-03 22:19 | 36.80740 | 10.21803 | 3010 ft | 194 kts | 187° |
| 2026-05-03 22:19 | 36.79371 | 10.21573 | 2998 ft | 204 kts | 187° |
| 2026-05-03 22:19 | 36.77965 | 10.21665 | 3003 ft | 205 kts | 163° |
| 2026-05-03 22:20 | 36.76773 | 10.22651 | 3009 ft | 212 kts | 133° |
| 2026-05-03 22:20 | 36.76185 | 10.24345 | 3009 ft | 220 kts | 99° |
| 2026-05-03 22:20 | 36.76201 | 10.26421 | 3014 ft | 256 kts | 94° |
| 2026-05-03 22:20 | 36.76050 | 10.28663 | 3011 ft | 263 kts | 99° |
| 2026-05-03 22:21 | 36.75837 | 10.30944 | 3010 ft | 266 kts | 101° |
| 2026-05-03 22:21 | 36.75805 | 10.33239 | 3026 ft | 269 kts | 82° |
| 2026-05-03 22:21 | 36.76521 | 10.35404 | 3028 ft | 274 kts | 56° |
| 2026-05-03 22:21 | 36.77895 | 10.36949 | 3027 ft | 262 kts | 30° |
| 2026-05-03 22:22 | 36.79714 | 10.37637 | 3027 ft | 287 kts | 3° |
| 2026-05-03 22:22 | 36.81690 | 10.37229 | 3028 ft | 292 kts | 337° |
| 2026-05-03 22:22 | 36.83536 | 10.36194 | 3024 ft | 293 kts | 334° |
| 2026-05-03 22:22 | 36.85391 | 10.35120 | 3023 ft | 295 kts | 333° |
| 2026-05-03 22:23 | 36.87200 | 10.34066 | 3021 ft | 278 kts | 333° |
| 2026-05-03 22:23 | 36.89048 | 10.33377 | 3026 ft | 279 kts | 351° |
| 2026-05-03 22:23 | 36.90970 | 10.33257 | 3025 ft | 277 kts | 2° |
| 2026-05-03 22:23 | 36.92903 | 10.33385 | 3025 ft | 279 kts | 3° |
| 2026-05-03 22:24 | 36.94837 | 10.33233 | 3024 ft | 280 kts | 344° |
| 2026-05-03 22:24 | 36.96560 | 10.32161 | 2940 ft | 278 kts | 320° |
| 2026-05-03 22:24 | 36.97754 | 10.30337 | 2781 ft | 269 kts | 290° |
| 2026-05-03 22:24 | 36.98002 | 10.28115 | 2338 ft | 255 kts | 254° |
| 2026-05-03 22:25 | 36.97177 | 10.26320 | 2064 ft | 227 kts | 216° |
| 2026-05-03 22:25 | 36.95831 | 10.25602 | 1832 ft | 202 kts | 192° |
| 2026-05-03 22:25 | 36.94506 | 10.25248 | 1586 ft | 187 kts | 189° |
| 2026-05-03 22:25 | 36.93285 | 10.24925 | 1350 ft | 171 kts | 188° |
| 2026-05-03 22:26 | 36.92201 | 10.24630 | 1150 ft | 151 kts | 188° |
| 2026-05-03 22:26 | 36.91240 | 10.24369 | 977 ft | 135 kts | 188° |
| 2026-05-03 22:26 | 36.90326 | 10.24121 | 766 ft | 131 kts | 186° |
| 2026-05-03 22:26 | 36.89438 | 10.23865 | 612 ft | 131 kts | 186° |
| 2026-05-03 22:27 | 36.88550 | 10.23641 | 468 ft | 130 kts | 188° |
| 2026-05-03 22:27 | 36.87665 | 10.23396 | 268 ft | 134 kts | 187° |
| 2026-05-03 22:27 | 36.86754 | 10.23150 | 68 ft | 134 kts | 189° |
| 2026-05-03 22:27 | 36.85859 | 10.22894 | 62 ft | 131 kts | 187° |
| 2026-05-03 22:28 | 36.85023 | 10.22675 | 44 ft | 110 kts | 186° |
| 2026-05-03 22:28 | 36.84392 | 10.22535 | 28 ft | 70 kts | 195° |
| 2026-05-03 22:28 | 36.84084 | 10.22430 | 32 ft | 27 kts | 199° |
| 2026-05-03 22:28 | 36.83922 | 10.22340 | 32 ft | 26 kts | 219° |
| 2026-05-03 22:29 | 36.83859 | 10.22122 | 31 ft | 30 kts | 274° |
| 2026-05-03 22:29 | 36.83887 | 10.21981 | 31 ft | 12 kts | 297° |
| 2026-05-03 22:29 | 36.83946 | 10.21903 | 31 ft | 13 kts | 319° |
| 2026-05-03 22:29 | 36.84023 | 10.21860 | 31 ft | 12 kts | 359° |
| 2026-05-03 22:30 | 36.84102 | 10.21889 | 31 ft | 12 kts | 8° |
| 2026-05-03 22:30 | 36.84188 | 10.21907 | 31 ft | 13 kts | 15° |
| 2026-05-03 22:30 | 36.84271 | 10.21938 | 31 ft | 13 kts | 13° |
| 2026-05-03 22:30 | 36.84358 | 10.21963 | 31 ft | 13 kts | 11° |
| 2026-05-03 22:31 | 36.84431 | 10.21946 | 31 ft | 7 kts | 329° |
| 2026-05-03 22:31 | 36.84462 | 10.21935 | 31 ft | 5 kts | 356° |
| 2026-05-03 22:31 | 36.84497 | 10.21931 | 31 ft | 0 kts | 351° |
| 2026-05-03 22:31 | 36.84500 | 10.21930 | 31 ft | 1 kts | 351° |
| 2026-05-03 22:32 | 36.84504 | 10.21929 | 31 ft | 0 kts | 351° |
| 2026-05-03 22:36 | 36.89238 | 10.23812 | 589 ft | 0 kts | 185° |
| 2026-05-03 22:36 | 36.86620 | 10.23111 | 31 ft | 0 kts | 189° |
| 2026-05-03 22:36 | 36.86914 | 10.23140 | 31 ft | 11 kts | 166° |
| 2026-05-03 22:37 | 36.89011 | 10.23767 | 467 ft | 22 kts | 188° |
| 2026-05-03 22:37 | 36.86623 | 10.23106 | 31 ft | 0 kts | 187° |
| 2026-05-03 22:37 | 36.86121 | 10.22960 | 70 ft | 21 kts | 187° |
| 2026-05-03 22:37 | 36.85817 | 10.22875 | 30 ft | 0 kts | 187° |